Rea, Missouri
Current Conditions -  °F | °C
As of 9:53 AM on Saturday 25 Oct 2014 (Local Time) from KSTJ Reporting Station
Moderate Fog Moderate Fog  
Wind Chill: 55°   Ceiling: 100
Heat Index: 55°   Visibility: 0.25mi
Dew Point: 55°   Wind: 7mph
Humidity: 100%   Direction: 10°N
Pressure: 30.1"   Gusts: NA
Location:  40.06°N, 94.76°W
Report Text: KSTJ 251453Z 01006KT 1/4SM R35/1000V1200FT FG VV001 13/13 A3010 RMK AO2 SLP191 T01280128 53017 $
Loading
Personal Weather Stations






























Interactive Weather Map
Tropical Storm Tracking
New forecast layout! Learn more

10-Day Weather Forecast

Advertisements
Track Severe Weather on mobile